Time;durP1;ratioP1;P1;durP2;ratioP2;P2;SDS_P1;SDS_P2;PMS_P1;PMS_P2;Temp;Humidity;BMP_temperature;BMP_pressure;BME280_temperature;BME280_humidity;BME280_pressure;Samples;Min_cycle;Max_cycle;Signal;HPM_P1;HPM_P2
2021/08/10 00:02:03;;;;;;;2.70;2.00;;;;;;;;;;5054328;28;20510;-74
2021/08/10 00:04:29;;;;;;;2.83;1.97;;;;;;;;;;5054109;28;20426;-75
2021/08/10 00:09:58;;;;;;;5.93;1.83;;;;;;;;;;5054308;28;20465;-75
2021/08/10 00:12:24;;;;;;;3.90;2.40;;;;;;;;;;5054080;28;20419;-74
2021/08/10 00:14:50;;;;;;;2.73;2.00;;;;;;;;;;5053726;28;20415;-73
2021/08/10 00:17:16;;;;;;;3.70;2.33;;;;;;;;;;5053836;28;20430;-74
2021/08/10 00:19:42;;;;;;;3.10;1.90;;;;;;;;;;5054284;28;20788;-74
2021/08/10 00:25:12;;;;;;;5.80;2.23;;;;;;;;;;5053615;28;20794;-75
2021/08/10 00:27:38;;;;;;;2.33;2.10;;;;;;;;;;5054117;28;20453;-74
2021/08/10 00:30:04;;;;;;;2.77;2.20;;;;;;;;;;5053765;28;21060;-74
2021/08/10 00:32:30;;;;;;;4.13;2.03;;;;;;;;;;5053667;28;20423;-74
2021/08/10 00:34:56;;;;;;;2.50;2.17;;;;;;;;;;5053555;28;20474;-75
2021/08/10 00:40:26;;;;;;;2.60;2.40;;;;;;;;;;5053662;28;20506;-74
2021/08/10 00:42:52;;;;;;;3.80;2.60;;;;;;;;;;5053853;28;20518;-73
2021/08/10 00:45:18;;;;;;;4.63;2.50;;;;;;;;;;5053536;28;20843;-74
2021/08/10 00:47:44;;;;;;;2.57;2.10;;;;;;;;;;5053646;28;20472;-75
2021/08/10 00:50:10;;;;;;;3.70;2.03;;;;;;;;;;5053286;28;20456;-73
2021/08/10 00:55:40;;;;;;;1.90;1.80;;;;;;;;;;5053311;28;20457;-74
2021/08/10 00:58:06;;;;;;;3.70;2.33;;;;;;;;;;5052583;28;20415;-74
2021/08/10 01:00:32;;;;;;;3.63;2.33;;;;;;;;;;5053286;28;20399;-72
2021/08/10 01:02:58;;;;;;;2.60;2.37;;;;;;;;;;5052915;28;20438;-74
2021/08/10 01:05:26;;;;;;;2.67;2.10;;;;;;;;;;5053055;28;20551;-74
2021/08/10 01:11:14;;;;;;;2.37;1.83;;;;;;;;;;5052886;28;20929;-74
2021/08/10 01:14:03;;;;;;;2.83;2.20;;;;;;;;;;5053006;28;20813;-74
2021/08/10 01:16:50;;;;;;;2.50;2.30;;;;;;;;;;5047441;28;20986;-74
2021/08/10 01:19:34;;;;;;;3.50;2.53;;;;;;;;;;5051795;28;20914;-74
2021/08/10 01:22:03;;;;;;;3.10;2.40;;;;;;;;;;5052784;28;20415;-74
2021/08/10 01:24:30;;;;;;;2.53;2.10;;;;;;;;;;5052358;28;20423;-74
2021/08/10 01:27:02;;;;;;;3.30;2.27;;;;;;;;;;5052634;28;20431;-74
2021/08/10 01:29:31;;;;;;;3.37;2.53;;;;;;;;;;5052787;28;20415;-74
2021/08/10 01:31:58;;;;;;;2.67;2.47;;;;;;;;;;5052861;28;20502;-74
2021/08/10 01:34:33;;;;;;;3.83;2.27;;;;;;;;;;5052304;28;20418;-74
2021/08/10 01:37:02;;;;;;;4.30;2.33;;;;;;;;;;5052252;28;20422;-74
2021/08/10 01:39:29;;;;;;;6.63;2.53;;;;;;;;;;5051407;28;20407;-74
2021/08/10 01:41:56;;;;;;;3.67;2.13;;;;;;;;;;5052549;28;20423;-74
2021/08/10 01:44:26;;;;;;;6.00;3.03;;;;;;;;;;5052596;28;20446;-75
2021/08/10 01:46:52;;;;;;;3.03;2.70;;;;;;;;;;5052691;28;20428;-74
2021/08/10 01:49:19;;;;;;;2.60;2.30;;;;;;;;;;5052237;28;20415;-74
2021/08/10 01:51:46;;;;;;;3.30;3.00;;;;;;;;;;5052393;28;20457;-74
2021/08/10 01:54:13;;;;;;;2.33;2.13;;;;;;;;;;5051945;28;20411;-74
2021/08/10 01:56:39;;;;;;;2.47;2.27;;;;;;;;;;5052374;28;20419;-74
2021/08/10 01:59:06;;;;;;;3.93;2.80;;;;;;;;;;5050490;28;20434;-74
2021/08/10 02:01:33;;;;;;;2.67;2.43;;;;;;;;;;5052130;28;20423;-73
2021/08/10 02:03:59;;;;;;;3.20;2.53;;;;;;;;;;5051458;28;20419;-74
2021/08/10 02:06:26;;;;;;;6.20;2.70;;;;;;;;;;5051971;28;20466;-74
2021/08/10 02:08:52;;;;;;;2.50;2.30;;;;;;;;;;5051820;28;20450;-74
2021/08/10 02:11:20;;;;;;;3.60;2.13;;;;;;;;;;5051722;28;20672;-74
2021/08/10 02:13:46;;;;;;;5.13;2.63;;;;;;;;;;5052135;28;20514;-73
2021/08/10 02:16:12;;;;;;;6.53;2.50;;;;;;;;;;5052332;28;20498;-74
2021/08/10 02:18:40;;;;;;;2.60;2.40;;;;;;;;;;5052025;28;20444;-74
2021/08/10 02:21:09;;;;;;;2.87;2.57;;;;;;;;;;5051526;28;20842;-74
2021/08/10 02:26:44;;;;;;;3.60;2.80;;;;;;;;;;5051668;28;20524;-74
2021/08/10 02:29:11;;;;;;;3.00;2.80;;;;;;;;;;5051585;28;20430;-74
2021/08/10 02:31:37;;;;;;;3.17;2.10;;;;;;;;;;5051751;28;20461;-75
2021/08/10 02:34:03;;;;;;;3.27;2.90;;;;;;;;;;5051649;28;20423;-75
2021/08/10 02:36:30;;;;;;;4.50;2.33;;;;;;;;;;5051450;28;20845;-75
2021/08/10 02:42:01;;;;;;;3.40;2.90;;;;;;;;;;5051027;28;20413;-75
2021/08/10 02:44:28;;;;;;;6.90;3.17;;;;;;;;;;5051499;28;20410;-74
2021/08/10 02:46:54;;;;;;;5.93;3.53;;;;;;;;;;5051460;28;20434;-74
2021/08/10 02:49:20;;;;;;;8.63;4.90;;;;;;;;;;5051398;28;20419;-74
2021/08/10 02:51:46;;;;;;;4.37;3.77;;;;;;;;;;5052089;28;20561;-74
2021/08/10 02:54:12;;;;;;;8.60;4.23;;;;;;;;;;5051160;28;20904;-74
2021/08/10 02:56:42;;;;;;;4.57;3.47;;;;;;;;;;5050616;28;20804;-74
2021/08/10 02:59:11;;;;;;;6.90;3.63;;;;;;;;;;5051367;28;20906;-74
2021/08/10 03:01:40;;;;;;;8.63;4.53;;;;;;;;;;5049626;28;20430;-74
2021/08/10 03:04:07;;;;;;;6.10;3.83;;;;;;;;;;5051265;28;20437;-73
2021/08/10 03:06:33;;;;;;;6.37;4.13;;;;;;;;;;5051322;28;20474;-74
2021/08/10 03:12:05;;;;;;;4.23;3.57;;;;;;;;;;5051419;28;20434;-74
2021/08/10 03:14:31;;;;;;;10.47;3.73;;;;;;;;;;5052782;28;20415;-74
2021/08/10 03:16:58;;;;;;;6.30;3.20;;;;;;;;;;5055204;28;20402;-75
2021/08/10 03:19:24;;;;;;;4.20;3.60;;;;;;;;;;5055383;28;20833;-74
2021/08/10 03:21:50;;;;;;;5.03;3.33;;;;;;;;;;5055156;28;20493;-74
2021/08/10 03:27:20;;;;;;;6.27;4.20;;;;;;;;;;5054952;28;20478;-73
2021/08/10 03:29:46;;;;;;;6.73;3.60;;;;;;;;;;5055239;28;20876;-75
2021/08/10 03:32:14;;;;;;;5.60;3.80;;;;;;;;;;5055282;28;20446;-75
2021/08/10 03:34:41;;;;;;;6.60;4.17;;;;;;;;;;5054556;28;20459;-74
2021/08/10 03:37:09;;;;;;;8.03;3.73;;;;;;;;;;5054553;28;20423;-74
2021/08/10 03:42:38;;;;;;;6.43;4.17;;;;;;;;;;5054816;28;20430;-74
2021/08/10 03:45:05;;;;;;;9.73;4.40;;;;;;;;;;5054411;28;20614;-74
2021/08/10 03:47:32;;;;;;;10.83;3.77;;;;;;;;;;5054621;28;20415;-75
2021/08/10 03:49:59;;;;;;;5.83;4.17;;;;;;;;;;5053393;28;20478;-74
2021/08/10 03:52:25;;;;;;;8.87;3.70;;;;;;;;;;5054552;28;20415;-75
2021/08/10 03:54:51;;;;;;;6.67;4.20;;;;;;;;;;5053389;28;20790;-74
2021/08/10 03:57:18;;;;;;;6.40;4.20;;;;;;;;;;5054764;28;20423;-74
2021/08/10 03:59:46;;;;;;;8.70;5.00;;;;;;;;;;5053577;28;20462;-74
2021/08/10 04:02:16;;;;;;;10.30;5.90;;;;;;;;;;5053149;28;20524;-73
2021/08/10 04:04:45;;;;;;;5.63;3.13;;;;;;;;;;5053798;28;20419;-74
2021/08/10 04:07:12;;;;;;;4.90;3.37;;;;;;;;;;5054202;28;20437;-75
2021/08/10 04:12:42;;;;;;;5.97;3.13;;;;;;;;;;5054165;28;20478;-74
2021/08/10 04:15:08;;;;;;;3.80;3.03;;;;;;;;;;5054131;28;20415;-74
2021/08/10 04:17:36;;;;;;;6.70;3.63;;;;;;;;;;5054024;28;20842;-74
2021/08/10 04:20:02;;;;;;;3.13;2.80;;;;;;;;;;5053993;28;20472;-74
2021/08/10 04:22:28;;;;;;;4.53;3.03;;;;;;;;;;5053683;28;20852;-74
2021/08/10 04:27:58;;;;;;;5.10;3.20;;;;;;;;;;5053431;28;20418;-73
2021/08/10 04:30:24;;;;;;;6.37;3.37;;;;;;;;;;5053876;28;20426;-73
2021/08/10 04:32:50;;;;;;;3.07;2.77;;;;;;;;;;5053571;28;20510;-74
2021/08/10 04:35:16;;;;;;;3.23;2.97;;;;;;;;;;5051982;28;21001;-73
2021/08/10 04:37:41;;;;;;;3.83;2.60;;;;;;;;;;5053709;28;20419;-74
2021/08/10 04:43:11;;;;;;;5.17;3.60;;;;;;;;;;5053507;28;20525;-74
2021/08/10 04:45:37;;;;;;;4.73;3.63;;;;;;;;;;5052966;28;20473;-73
2021/08/10 04:48:03;;;;;;;8.60;3.83;;;;;;;;;;5053413;28;20481;-73
2021/08/10 04:50:29;;;;;;;6.63;3.63;;;;;;;;;;5053250;28;20437;-74
2021/08/10 04:52:55;;;;;;;5.33;3.20;;;;;;;;;;5052952;28;20411;-73
2021/08/10 04:58:25;;;;;;;3.67;2.90;;;;;;;;;;5053212;28;20418;-74
2021/08/10 05:00:55;;;;;;;3.70;2.90;;;;;;;;;;5052582;28;20415;-75
2021/08/10 05:03:21;;;;;;;5.20;3.03;;;;;;;;;;5052375;28;20505;-74
2021/08/10 05:05:48;;;;;;;5.43;3.03;;;;;;;;;;5048490;28;20565;-73
2021/08/10 05:14:03;;;;;;;4.77;3.30;;;;;;;;;;5052359;28;20414;-74
2021/08/10 05:16:29;;;;;;;5.57;3.50;;;;;;;;;;5052326;28;20411;-74
2021/08/10 05:18:55;;;;;;;6.10;3.53;;;;;;;;;;5052119;28;20411;-74
2021/08/10 05:21:21;;;;;;;4.07;2.70;;;;;;;;;;5052247;28;20418;-73
2021/08/10 05:23:47;;;;;;;2.83;2.63;;;;;;;;;;5052372;28;20468;-73
2021/08/10 05:26:13;;;;;;;3.20;2.90;;;;;;;;;;5052181;28;20475;-74
2021/08/10 05:28:39;;;;;;;5.17;3.03;;;;;;;;;;5051039;28;20799;-74
2021/08/10 05:31:05;;;;;;;3.10;2.80;;;;;;;;;;5051975;28;20457;-74
2021/08/10 05:33:31;;;;;;;3.83;3.00;;;;;;;;;;5052089;28;20415;-74
2021/08/10 05:35:57;;;;;;;4.47;2.47;;;;;;;;;;5051458;28;20480;-74
2021/08/10 05:38:23;;;;;;;4.47;2.70;;;;;;;;;;5051138;28;20430;-73
2021/08/10 05:43:53;;;;;;;4.07;3.20;;;;;;;;;;5052026;28;20770;-74
2021/08/10 05:46:19;;;;;;;6.43;3.00;;;;;;;;;;5051720;28;20467;-73
2021/08/10 05:48:44;;;;;;;3.43;3.13;;;;;;;;;;5050793;28;20427;-74
2021/08/10 05:51:10;;;;;;;5.33;2.67;;;;;;;;;;5056024;28;20442;-74
2021/08/10 05:53:36;;;;;;;3.10;2.57;;;;;;;;;;5051966;28;20829;-73
2021/08/10 05:59:07;;;;;;;4.03;2.70;;;;;;;;;;5051397;28;20495;-73
2021/08/10 06:01:36;;;;;;;4.07;2.70;;;;;;;;;;5048820;28;20419;-73
2021/08/10 06:04:02;;;;;;;3.30;3.00;;;;;;;;;;5050129;28;20455;-73
2021/08/10 06:06:28;;;;;;;2.50;2.30;;;;;;;;;;5050470;28;20506;-74
2021/08/10 06:08:54;;;;;;;2.93;2.60;;;;;;;;;;5051024;28;20423;-73
2021/08/10 06:11:20;;;;;;;3.20;2.40;;;;;;;;;;5050729;28;20545;-72
2021/08/10 06:13:46;;;;;;;3.80;2.73;;;;;;;;;;5050318;28;20438;-74
2021/08/10 06:16:12;;;;;;;3.40;2.43;;;;;;;;;;5051317;28;20453;-74
2021/08/10 06:18:38;;;;;;;3.20;2.33;;;;;;;;;;5051287;28;20461;-75
2021/08/10 06:21:04;;;;;;;3.33;3.03;;;;;;;;;;5051278;28;20426;-74
2021/08/10 06:23:30;;;;;;;6.70;2.37;;;;;;;;;;5049639;28;20514;-75
2021/08/10 06:29:02;;;;;;;2.10;1.90;;;;;;;;;;5051387;28;20779;-73
2021/08/10 06:31:28;;;;;;;2.80;2.47;;;;;;;;;;5050168;28;20502;-74
2021/08/10 06:33:54;;;;;;;2.77;2.57;;;;;;;;;;5051208;28;20450;-73
2021/08/10 06:36:20;;;;;;;4.57;2.53;;;;;;;;;;5049333;28;20466;-74
2021/08/10 06:38:46;;;;;;;2.40;2.20;;;;;;;;;;5046011;28;20671;-73
2021/08/10 06:44:15;;;;;;;3.80;2.30;;;;;;;;;;5051520;28;20916;-73
2021/08/10 06:46:41;;;;;;;2.60;2.40;;;;;;;;;;5051597;28;20462;-74
2021/08/10 06:49:07;;;;;;;6.33;2.70;;;;;;;;;;5053125;28;20878;-75
2021/08/10 06:51:35;;;;;;;4.43;2.90;;;;;;;;;;5058354;28;20419;-73
2021/08/10 06:54:01;;;;;;;4.70;2.50;;;;;;;;;;5057791;28;20451;-73
2021/08/10 06:59:31;;;;;;;2.83;2.60;;;;;;;;;;5055991;28;20411;-72
2021/08/10 07:01:57;;;;;;;2.83;2.63;;;;;;;;;;5056386;28;20415;-72
2021/08/10 07:04:23;;;;;;;2.33;2.20;;;;;;;;;;5056478;28;20415;-72
2021/08/10 07:06:49;;;;;;;4.00;2.73;;;;;;;;;;5056168;28;20569;-73
2021/08/10 07:09:15;;;;;;;6.27;3.10;;;;;;;;;;5056038;28;20524;-75
2021/08/10 07:14:45;;;;;;;2.93;2.57;;;;;;;;;;5055641;28;20483;-73
2021/08/10 07:17:11;;;;;;;6.80;2.87;;;;;;;;;;5054020;28;20521;-74
2021/08/10 07:19:37;;;;;;;2.87;2.47;;;;;;;;;;5055484;28;20784;-74
2021/08/10 07:22:03;;;;;;;3.73;2.80;;;;;;;;;;5055439;28;20430;-75
2021/08/10 07:24:29;;;;;;;5.17;2.60;;;;;;;;;;5055150;28;20422;-74
2021/08/10 07:30:00;;;;;;;5.53;2.53;;;;;;;;;;5055234;28;20927;-74
2021/08/10 07:32:26;;;;;;;2.40;2.20;;;;;;;;;;5054144;28;20578;-75
2021/08/10 07:34:52;;;;;;;5.37;3.00;;;;;;;;;;5055217;28;20735;-75
2021/08/10 07:37:18;;;;;;;4.70;3.17;;;;;;;;;;5055235;28;20422;-74
2021/08/10 07:39:44;;;;;;;4.83;2.30;;;;;;;;;;5055179;28;20418;-73
2021/08/10 07:45:14;;;;;;;5.77;2.30;;;;;;;;;;5055278;28;20563;-74
2021/08/10 07:47:40;;;;;;;2.20;2.00;;;;;;;;;;5056174;28;20850;-75
2021/08/10 07:50:06;;;;;;;3.10;2.60;;;;;;;;;;5055913;28;20421;-74
2021/08/10 07:52:32;;;;;;;3.73;2.57;;;;;;;;;;5054100;28;20455;-75
2021/08/10 07:54:58;;;;;;;2.43;2.23;;;;;;;;;;5053842;28;20474;-75
2021/08/10 08:00:27;;;;;;;3.40;2.57;;;;;;;;;;5054557;28;20437;-75
2021/08/10 08:02:53;;;;;;;4.80;2.70;;;;;;;;;;5052133;28;20901;-76
2021/08/10 08:05:19;;;;;;;4.53;2.73;;;;;;;;;;5052697;28;20478;-75
2021/08/10 08:07:45;;;;;;;3.30;2.50;;;;;;;;;;5052394;28;20407;-75
2021/08/10 08:10:11;;;;;;;2.30;2.10;;;;;;;;;;5052790;28;20434;-75
2021/08/10 08:15:41;;;;;;;5.30;2.33;;;;;;;;;;5052488;28;20449;-77
2021/08/10 08:18:07;;;;;;;4.27;2.83;;;;;;;;;;5051146;28;20419;-73
2021/08/10 08:20:33;;;;;;;2.93;2.30;;;;;;;;;;5049196;28;20461;-75
2021/08/10 08:22:59;;;;;;;3.23;2.80;;;;;;;;;;5052449;28;20414;-75
2021/08/10 08:25:25;;;;;;;2.80;2.30;;;;;;;;;;5052383;28;20857;-75
2021/08/10 08:30:55;;;;;;;3.10;2.57;;;;;;;;;;5051843;28;20413;-77
2021/08/10 08:33:21;;;;;;;6.77;2.33;;;;;;;;;;5051989;28;20510;-76
2021/08/10 08:35:47;;;;;;;2.13;1.80;;;;;;;;;;5050818;28;20474;-72
2021/08/10 08:38:13;;;;;;;3.53;2.37;;;;;;;;;;5051483;28;20836;-73
2021/08/10 08:46:31;;;;;;;4.60;2.83;;;;;;;;;;5051578;28;20505;-76
2021/08/10 08:48:58;;;;;;;4.97;2.03;;;;;;;;;;5051815;28;20419;-74
2021/08/10 08:51:25;;;;;;;2.43;2.00;;;;;;;;;;5050595;28;20446;-77
2021/08/10 08:53:52;;;;;;;2.03;1.93;;;;;;;;;;5049806;28;20518;-76
2021/08/10 08:56:23;;;;;;;1.90;1.80;;;;;;;;;;5051156;28;20470;-77
2021/08/10 08:58:51;;;;;;;2.40;2.20;;;;;;;;;;5051269;28;20427;-76
2021/08/10 09:01:17;;;;;;;3.60;2.00;;;;;;;;;;5051664;28;20430;-76
2021/08/10 09:03:43;;;;;;;1.67;1.57;;;;;;;;;;5050431;28;20910;-75
2021/08/10 09:06:09;;;;;;;2.30;2.10;;;;;;;;;;5050995;28;20469;-76
2021/08/10 09:08:41;;;;;;;2.73;1.50;;;;;;;;;;5051175;28;20438;-77
2021/08/10 09:11:10;;;;;;;2.40;2.03;;;;;;;;;;5050713;28;20468;-75
2021/08/10 09:13:39;;;;;;;2.03;1.93;;;;;;;;;;5051097;28;20906;-74
2021/08/10 09:16:06;;;;;;;2.67;2.20;;;;;;;;;;5051000;28;20419;-73
2021/08/10 09:18:35;;;;;;;2.40;1.90;;;;;;;;;;5051117;28;20402;-74
2021/08/10 09:21:03;;;;;;;2.10;1.87;;;;;;;;;;5051167;28;20406;-73
2021/08/10 09:23:44;;;;;;;1.67;1.47;;;;;;;;;;5050579;28;20446;-75
2021/08/10 09:26:10;;;;;;;1.97;1.40;;;;;;;;;;5051048;28;20478;-75
2021/08/10 09:28:36;;;;;;;1.90;1.43;;;;;;;;;;5050785;28;20407;-74
2021/08/10 09:31:21;;;;;;;3.40;2.00;;;;;;;;;;5051236;28;20469;-73
2021/08/10 09:33:47;;;;;;;2.20;2.00;;;;;;;;;;5050945;28;20741;-73
2021/08/10 09:36:20;;;;;;;2.47;2.23;;;;;;;;;;5046278;28;20458;-74
2021/08/10 09:38:47;;;;;;;3.80;1.70;;;;;;;;;;5050520;28;20908;-73
2021/08/10 09:41:17;;;;;;;1.63;1.53;;;;;;;;;;5050543;28;20411;-73
2021/08/10 09:43:43;;;;;;;1.70;1.60;;;;;;;;;;5050550;28;20419;-73
2021/08/10 09:46:19;;;;;;;2.30;1.97;;;;;;;;;;5050210;28;20732;-73
2021/08/10 09:48:57;;;;;;;2.23;1.37;;;;;;;;;;5050388;28;20421;-73
2021/08/10 09:51:24;;;;;;;2.13;1.93;;;;;;;;;;5050416;28;20430;-74
2021/08/10 09:53:58;;;;;;;2.13;1.60;;;;;;;;;;5050031;28;20481;-74
2021/08/10 09:56:39;;;;;;;4.97;2.00;;;;;;;;;;5050126;28;20937;-74
2021/08/10 09:59:05;;;;;;;3.33;2.80;;;;;;;;;;5049671;28;20508;-73
2021/08/10 10:01:36;;;;;;;2.00;1.50;;;;;;;;;;5049944;28;20521;-73
2021/08/10 10:04:11;;;;;;;3.17;1.90;;;;;;;;;;5050469;28;20481;-73
2021/08/10 10:06:37;;;;;;;3.37;1.90;;;;;;;;;;5050065;28;20474;-74
2021/08/10 10:09:04;;;;;;;2.43;2.00;;;;;;;;;;5048787;28;20766;-73
2021/08/10 10:11:32;;;;;;;1.90;1.60;;;;;;;;;;5049571;28;20500;-73
2021/08/10 10:13:59;;;;;;;1.73;1.47;;;;;;;;;;5050114;28;20403;-73
2021/08/10 10:16:26;;;;;;;2.20;1.97;;;;;;;;;;5050008;28;20419;-74
2021/08/10 10:18:52;;;;;;;4.00;2.00;;;;;;;;;;5050526;28;20418;-73
2021/08/10 10:21:21;;;;;;;2.80;1.80;;;;;;;;;;5049959;28;20423;-73
2021/08/10 10:23:48;;;;;;;4.43;1.97;;;;;;;;;;5047976;28;20431;-73
2021/08/10 10:26:15;;;;;;;2.40;2.20;;;;;;;;;;5049875;28;20565;-75
2021/08/10 10:31:45;;;;;;;1.87;1.50;;;;;;;;;;5049836;28;20811;-74
2021/08/10 10:34:12;;;;;;;2.10;1.80;;;;;;;;;;5049645;28;20747;-74
2021/08/10 10:36:40;;;;;;;3.47;1.83;;;;;;;;;;5046771;28;20505;-74
2021/08/10 10:39:07;;;;;;;2.30;1.97;;;;;;;;;;5050955;28;20902;-74
2021/08/10 10:41:34;;;;;;;3.13;2.10;;;;;;;;;;5051631;28;20759;-74
2021/08/10 10:47:23;;;;;;;2.00;1.60;;;;;;;;;;5050917;28;20513;-74
2021/08/10 10:50:02;;;;;;;3.20;2.07;;;;;;;;;;5050387;28;20498;-73
2021/08/10 10:52:29;;;;;;;2.60;2.20;;;;;;;;;;5049039;28;20478;-73
2021/08/10 10:54:56;;;;;;;2.50;1.87;;;;;;;;;;5050151;28;20415;-73
2021/08/10 10:57:31;;;;;;;6.40;2.57;;;;;;;;;;5050509;28;20427;-74
2021/08/10 11:00:04;;;;;;;4.43;2.33;;;;;;;;;;5050877;28;20727;-74
2021/08/10 11:02:30;;;;;;;3.20;2.47;;;;;;;;;;5049313;28;20431;-74
2021/08/10 11:05:09;;;;;;;2.77;2.00;;;;;;;;;;5050473;28;20473;-74
2021/08/10 11:07:44;;;;;;;3.60;2.33;;;;;;;;;;5050434;28;20451;-74
2021/08/10 11:10:11;;;;;;;1.83;1.73;;;;;;;;;;5049052;28;20807;-73
2021/08/10 11:12:47;;;;;;;1.80;1.70;;;;;;;;;;5051064;28;20421;-72
2021/08/10 11:15:23;;;;;;;3.40;2.17;;;;;;;;;;5051047;28;20418;-74
2021/08/10 11:18:08;;;;;;;3.40;2.10;;;;;;;;;;5050745;28;20449;-75
2021/08/10 11:20:35;;;;;;;4.13;2.03;;;;;;;;;;5050762;28;20535;-82
2021/08/10 11:23:26;;;;;;;2.07;1.80;;;;;;;;;;5050341;28;20510;-73
2021/08/10 11:25:55;;;;;;;4.50;2.33;;;;;;;;;;5050845;28;20957;-75
2021/08/10 11:28:27;;;;;;;2.17;1.97;;;;;;;;;;5049501;28;20525;-74
2021/08/10 11:30:54;;;;;;;4.67;2.27;;;;;;;;;;5049996;28;20573;-73
2021/08/10 11:33:32;;;;;;;4.60;2.07;;;;;;;;;;5050808;28;20921;-73
2021/08/10 11:36:21;;;;;;;6.00;2.70;;;;;;;;;;5047875;28;20475;-74
2021/08/10 11:38:47;;;;;;;6.83;2.30;;;;;;;;;;5047228;28;20438;-73
2021/08/10 11:41:19;;;;;;;2.73;1.90;;;;;;;;;;5054034;28;20418;-74
2021/08/10 11:43:54;;;;;;;2.97;1.90;;;;;;;;;;5054722;28;20564;-74
2021/08/10 11:46:19;;;;;;;2.60;2.40;;;;;;;;;;5053104;28;20488;-74
2021/08/10 11:48:47;;;;;;;5.47;2.33;;;;;;;;;;5054274;28;20407;-74
2021/08/10 11:51:21;;;;;;;4.87;1.97;;;;;;;;;;5054551;28;20433;-74
2021/08/10 11:53:51;;;;;;;3.00;2.63;;;;;;;;;;5054194;28;20419;-73
2021/08/10 11:56:29;;;;;;;3.43;2.10;;;;;;;;;;5054233;28;20454;-74
2021/08/10 11:58:56;;;;;;;3.93;2.40;;;;;;;;;;5054460;28;20797;-73
2021/08/10 12:01:22;;;;;;;3.00;1.90;;;;;;;;;;5054598;28;20830;-74
2021/08/10 12:03:48;;;;;;;2.17;1.93;;;;;;;;;;5054265;28;20418;-74
2021/08/10 12:06:14;;;;;;;2.30;1.80;;;;;;;;;;5052793;28;21005;-74
2021/08/10 12:08:41;;;;;;;3.63;2.73;;;;;;;;;;5053641;28;20411;-74
2021/08/10 12:11:07;;;;;;;2.43;2.20;;;;;;;;;;5054154;28;20419;-74
2021/08/10 12:13:33;;;;;;;2.50;2.30;;;;;;;;;;5054362;28;20422;-74
2021/08/10 12:15:59;;;;;;;2.63;2.43;;;;;;;;;;5054008;28;20906;-74
2021/08/10 12:18:27;;;;;;;2.40;2.20;;;;;;;;;;5054172;28;20407;-73
2021/08/10 12:20:59;;;;;;;2.23;2.00;;;;;;;;;;5053904;28;20914;-73
2021/08/10 12:23:26;;;;;;;2.50;2.30;;;;;;;;;;5053503;28;20411;-73
2021/08/10 12:25:52;;;;;;;4.40;2.10;;;;;;;;;;5053809;28;20474;-75
2021/08/10 12:28:18;;;;;;;1.80;1.70;;;;;;;;;;5053893;28;20901;-74
2021/08/10 12:30:45;;;;;;;2.27;1.80;;;;;;;;;;5053700;28;20423;-73
2021/08/10 12:33:11;;;;;;;2.60;1.90;;;;;;;;;;5052306;28;20423;-73
2021/08/10 12:35:37;;;;;;;4.03;2.13;;;;;;;;;;5053646;28;20470;-73
2021/08/10 12:38:05;;;;;;;3.43;1.60;;;;;;;;;;5053049;28;20901;-74
2021/08/10 12:40:32;;;;;;;2.37;1.77;;;;;;;;;;5053326;28;20461;-73
2021/08/10 12:42:58;;;;;;;2.20;1.93;;;;;;;;;;5053591;28;20489;-74
2021/08/10 12:48:32;;;;;;;1.90;1.80;;;;;;;;;;5053066;28;20472;-74
2021/08/10 12:51:05;;;;;;;3.20;2.60;;;;;;;;;;5053212;28;20418;-74
2021/08/10 12:53:36;;;;;;;2.63;2.10;;;;;;;;;;5052873;28;20414;-74
2021/08/10 12:56:06;;;;;;;2.73;2.23;;;;;;;;;;5053013;28;20418;-74
2021/08/10 12:58:33;;;;;;;3.00;2.20;;;;;;;;;;5053173;28;20419;-74
2021/08/10 13:01:08;;;;;;;5.00;1.90;;;;;;;;;;5053140;28;20403;-74
2021/08/10 13:03:34;;;;;;;6.27;2.70;;;;;;;;;;5053132;28;20419;-73
2021/08/10 13:06:00;;;;;;;6.63;2.40;;;;;;;;;;5051631;28;20524;-73
2021/08/10 13:08:27;;;;;;;3.07;2.33;;;;;;;;;;5052782;28;20457;-74
2021/08/10 13:10:54;;;;;;;2.50;2.30;;;;;;;;;;5053208;28;20411;-73
2021/08/10 13:13:24;;;;;;;3.37;2.40;;;;;;;;;;5052878;28;20407;-73
2021/08/10 13:15:52;;;;;;;2.90;2.50;;;;;;;;;;5051364;28;20433;-73
2021/08/10 13:18:22;;;;;;;2.43;2.10;;;;;;;;;;5051544;28;20407;-73
2021/08/10 13:20:50;;;;;;;2.70;2.00;;;;;;;;;;5053271;28;20763;-73
2021/08/10 13:23:16;;;;;;;2.73;2.03;;;;;;;;;;5052405;28;20407;-74
2021/08/10 13:25:53;;;;;;;2.47;2.27;;;;;;;;;;5052590;28;20470;-73
2021/08/10 13:28:19;;;;;;;3.03;1.97;;;;;;;;;;5051214;28;20418;-74
2021/08/10 13:30:45;;;;;;;3.70;3.40;;;;;;;;;;5052682;28;20917;-74
2021/08/10 13:33:18;;;;;;;2.70;2.40;;;;;;;;;;5052722;28;20498;-73
2021/08/10 13:35:44;;;;;;;2.70;2.50;;;;;;;;;;5052430;28;20553;-73
2021/08/10 13:38:11;;;;;;;2.60;2.40;;;;;;;;;;5051950;28;20857;-73
2021/08/10 13:40:37;;;;;;;4.17;2.63;;;;;;;;;;5052543;28;20415;-74
2021/08/10 13:43:04;;;;;;;3.53;2.70;;;;;;;;;;5052344;28;20443;-73
2021/08/10 13:48:34;;;;;;;3.87;2.53;;;;;;;;;;5051969;28;20768;-74
2021/08/10 13:51:00;;;;;;;2.33;2.13;;;;;;;;;;5052333;28;20449;-73
2021/08/10 13:53:27;;;;;;;4.13;2.70;;;;;;;;;;5051963;28;20726;-74
2021/08/10 13:55:53;;;;;;;3.00;2.47;;;;;;;;;;5051866;28;21068;-73
2021/08/10 13:58:19;;;;;;;4.10;2.17;;;;;;;;;;5051984;28;20407;-74
2021/08/10 14:03:49;;;;;;;3.10;2.67;;;;;;;;;;5051774;28;20414;-73
2021/08/10 14:06:15;;;;;;;2.53;2.30;;;;;;;;;;5051795;28;20549;-73
2021/08/10 14:08:42;;;;;;;3.77;2.50;;;;;;;;;;5050462;28;20445;-74
2021/08/10 14:11:08;;;;;;;2.33;1.83;;;;;;;;;;5051823;28;20799;-74
2021/08/10 14:13:34;;;;;;;2.20;2.00;;;;;;;;;;5051921;28;20418;-73
2021/08/10 14:16:00;;;;;;;2.87;2.53;;;;;;;;;;5051948;28;20503;-74
2021/08/10 14:18:26;;;;;;;3.13;2.20;;;;;;;;;;5050349;28;20493;-74
2021/08/10 14:20:52;;;;;;;3.50;2.20;;;;;;;;;;5051768;28;20427;-74
2021/08/10 14:23:18;;;;;;;2.20;2.00;;;;;;;;;;5051572;28;21087;-74
2021/08/10 14:25:44;;;;;;;3.83;2.37;;;;;;;;;;5051587;28;20564;-73
2021/08/10 14:28:10;;;;;;;2.13;1.93;;;;;;;;;;5051661;28;20406;-74
2021/08/10 14:33:40;;;;;;;5.53;2.50;;;;;;;;;;5051351;28;20925;-73
2021/08/10 14:36:07;;;;;;;4.53;2.40;;;;;;;;;;5051197;28;20466;-73
2021/08/10 14:38:33;;;;;;;3.83;2.53;;;;;;;;;;5051152;28;20431;-73
2021/08/10 14:41:00;;;;;;;2.30;2.10;;;;;;;;;;5051880;28;20418;-74
2021/08/10 14:43:26;;;;;;;2.40;1.73;;;;;;;;;;5051285;28;20479;-73
2021/08/10 14:48:56;;;;;;;2.97;2.20;;;;;;;;;;5051021;28;20422;-74
2021/08/10 14:51:22;;;;;;;3.63;2.50;;;;;;;;;;5051269;28;20411;-74
2021/08/10 14:53:48;;;;;;;2.90;2.40;;;;;;;;;;5049519;28;20454;-73
2021/08/10 14:56:14;;;;;;;2.87;2.13;;;;;;;;;;5051226;28;20419;-73
2021/08/10 14:58:45;;;;;;;3.10;2.77;;;;;;;;;;5051255;28;20422;-74
2021/08/10 15:04:14;;;;;;;2.60;2.20;;;;;;;;;;5050917;28;20503;-74
2021/08/10 15:06:40;;;;;;;2.93;2.00;;;;;;;;;;5045083;28;20905;-73
2021/08/10 15:09:06;;;;;;;2.67;2.10;;;;;;;;;;5046030;28;20428;-73
2021/08/10 15:11:32;;;;;;;3.40;2.30;;;;;;;;;;5052287;28;20778;-73
2021/08/10 15:13:59;;;;;;;2.53;2.20;;;;;;;;;;5053719;28;20514;-73
2021/08/10 15:16:25;;;;;;;4.67;2.40;;;;;;;;;;5053394;28;20454;-73
2021/08/10 15:18:51;;;;;;;3.13;2.40;;;;;;;;;;5053311;28;20944;-74
2021/08/10 15:21:17;;;;;;;3.10;2.17;;;;;;;;;;5053074;28;20411;-74
2021/08/10 15:23:43;;;;;;;3.87;2.57;;;;;;;;;;5053015;28;20411;-75
2021/08/10 15:26:09;;;;;;;2.53;2.27;;;;;;;;;;5052569;28;21137;-73
2021/08/10 15:28:35;;;;;;;5.03;2.63;;;;;;;;;;5053069;28;20868;-73
2021/08/10 15:34:05;;;;;;;4.50;2.33;;;;;;;;;;5052744;28;20919;-80
2021/08/10 15:36:31;;;;;;;3.60;2.10;;;;;;;;;;5052446;28;20466;-78
2021/08/10 15:38:58;;;;;;;3.70;2.90;;;;;;;;;;5047839;28;20468;-81
2021/08/10 15:41:24;;;;;;;6.33;2.40;;;;;;;;;;5052379;28;20424;-79
2021/08/10 15:43:50;;;;;;;2.47;2.27;;;;;;;;;;5052730;28;20695;-82
2021/08/10 15:49:19;;;;;;;3.97;2.77;;;;;;;;;;5052400;28;20457;-74
2021/08/10 15:51:45;;;;;;;3.47;2.07;;;;;;;;;;5052302;28;20443;-80
2021/08/10 15:54:11;;;;;;;3.43;2.60;;;;;;;;;;5052120;28;20781;-81
2021/08/10 15:56:38;;;;;;;5.50;2.77;;;;;;;;;;5052169;28;20924;-79
2021/08/10 15:59:04;;;;;;;2.40;1.80;;;;;;;;;;5052652;28;20415;-80
2021/08/10 16:04:34;;;;;;;3.67;2.77;;;;;;;;;;5052115;28;20468;-81
2021/08/10 16:07:00;;;;;;;2.30;2.10;;;;;;;;;;5051476;28;20547;-80
2021/08/10 16:09:26;;;;;;;5.20;2.40;;;;;;;;;;5051788;28;20419;-79
2021/08/10 16:11:54;;;;;;;4.77;2.70;;;;;;;;;;5047660;28;20783;-79
2021/08/10 16:14:20;;;;;;;7.13;2.63;;;;;;;;;;5050539;28;20742;-79
2021/08/10 16:19:50;;;;;;;2.83;2.03;;;;;;;;;;5052538;28;20766;-78
2021/08/10 16:22:16;;;;;;;3.17;2.20;;;;;;;;;;5051284;28;20418;-79
2021/08/10 16:24:42;;;;;;;2.67;2.47;;;;;;;;;;5052119;28;20469;-81
2021/08/10 16:27:10;;;;;;;6.10;2.57;;;;;;;;;;5052165;28;20470;-81
2021/08/10 16:29:36;;;;;;;4.07;2.97;;;;;;;;;;5052253;28;20404;-83
2021/08/10 16:32:03;;;;;;;5.23;3.00;;;;;;;;;;5051891;28;20415;-80
2021/08/10 16:34:29;;;;;;;2.70;2.37;;;;;;;;;;5050343;28;20461;-81
2021/08/10 16:36:55;;;;;;;2.57;2.37;;;;;;;;;;5051151;28;20522;-81
2021/08/10 16:39:21;;;;;;;2.50;2.27;;;;;;;;;;5052913;28;20786;-80
2021/08/10 16:41:47;;;;;;;2.47;2.20;;;;;;;;;;5053377;28;20430;-81
2021/08/10 16:44:14;;;;;;;3.83;2.70;;;;;;;;;;5053602;28;20909;-77
2021/08/10 16:49:44;;;;;;;2.57;2.30;;;;;;;;;;5053501;28;20884;-81
2021/08/10 16:52:10;;;;;;;2.40;2.10;;;;;;;;;;5053482;28;20560;-80
2021/08/10 16:54:36;;;;;;;2.47;2.27;;;;;;;;;;5053197;28;20457;-81